sensor_id;sensor_type;location;lat;lon;timestamp;P1;durP1;ratioP1;P2;durP2;ratioP2
22754;SDS011;11544;42.020;23.094;2022-12-07T00:01:37;7.03;;;3.90;;
22754;SDS011;11544;42.020;23.094;2022-12-07T00:04:05;11.18;;;4.60;;
22754;SDS011;11544;42.020;23.094;2022-12-07T00:06:36;7.55;;;3.92;;
22754;SDS011;11544;42.020;23.094;2022-12-07T00:09:04;9.02;;;4.20;;
22754;SDS011;11544;42.020;23.094;2022-12-07T00:11:32;6.72;;;3.65;;
22754;SDS011;11544;42.020;23.094;2022-12-07T00:14:01;6.85;;;3.35;;
22754;SDS011;11544;42.020;23.094;2022-12-07T00:16:32;8.07;;;3.50;;
22754;SDS011;11544;42.020;23.094;2022-12-07T00:19:00;8.82;;;4.20;;
22754;SDS011;11544;42.020;23.094;2022-12-07T00:21:32;6.70;;;3.70;;
22754;SDS011;11544;42.020;23.094;2022-12-07T00:24:02;5.50;;;3.55;;
22754;SDS011;11544;42.020;23.094;2022-12-07T00:26:33;7.60;;;2.65;;
22754;SDS011;11544;42.020;23.094;2022-12-07T00:29:04;8.10;;;3.00;;
22754;SDS011;11544;42.020;23.094;2022-12-07T00:31:34;8.20;;;2.72;;
22754;SDS011;11544;42.020;23.094;2022-12-07T00:34:06;7.25;;;3.35;;
22754;SDS011;11544;42.020;23.094;2022-12-07T00:36:34;5.93;;;2.75;;
22754;SDS011;11544;42.020;23.094;2022-12-07T00:39:04;9.40;;;3.72;;
22754;SDS011;11544;42.020;23.094;2022-12-07T00:41:31;9.60;;;3.50;;
22754;SDS011;11544;42.020;23.094;2022-12-07T00:43:58;6.32;;;3.22;;
22754;SDS011;11544;42.020;23.094;2022-12-07T00:46:25;7.82;;;3.15;;
22754;SDS011;11544;42.020;23.094;2022-12-07T00:48:53;4.43;;;2.88;;
22754;SDS011;11544;42.020;23.094;2022-12-07T00:51:21;9.18;;;3.22;;
22754;SDS011;11544;42.020;23.094;2022-12-07T00:53:50;6.32;;;3.13;;
22754;SDS011;11544;42.020;23.094;2022-12-07T00:56:18;6.88;;;3.35;;
22754;SDS011;11544;42.020;23.094;2022-12-07T00:58:51;9.10;;;3.58;;
22754;SDS011;11544;42.020;23.094;2022-12-07T01:01:27;7.13;;;3.28;;
22754;SDS011;11544;42.020;23.094;2022-12-07T01:03:56;6.63;;;3.42;;
22754;SDS011;11544;42.020;23.094;2022-12-07T01:06:23;8.30;;;3.30;;
22754;SDS011;11544;42.020;23.094;2022-12-07T01:08:51;5.53;;;3.15;;
22754;SDS011;11544;42.020;23.094;2022-12-07T01:11:20;5.50;;;3.05;;
22754;SDS011;11544;42.020;23.094;2022-12-07T01:13:50;6.30;;;3.35;;
22754;SDS011;11544;42.020;23.094;2022-12-07T01:16:18;7.50;;;3.03;;
22754;SDS011;11544;42.020;23.094;2022-12-07T01:18:47;5.53;;;3.00;;
22754;SDS011;11544;42.020;23.094;2022-12-07T01:21:16;7.75;;;3.40;;
22754;SDS011;11544;42.020;23.094;2022-12-07T01:23:47;9.70;;;3.92;;
22754;SDS011;11544;42.020;23.094;2022-12-07T01:26:15;6.88;;;3.45;;
22754;SDS011;11544;42.020;23.094;2022-12-07T01:28:44;7.78;;;3.63;;
22754;SDS011;11544;42.020;23.094;2022-12-07T01:31:13;5.68;;;3.63;;
22754;SDS011;11544;42.020;23.094;2022-12-07T01:33:43;9.18;;;3.67;;
22754;SDS011;11544;42.020;23.094;2022-12-07T01:38:47;7.95;;;3.47;;
22754;SDS011;11544;42.020;23.094;2022-12-07T01:41:19;11.40;;;4.07;;
22754;SDS011;11544;42.020;23.094;2022-12-07T01:46:34;9.25;;;4.00;;
22754;SDS011;11544;42.020;23.094;2022-12-07T01:49:02;11.07;;;3.92;;
22754;SDS011;11544;42.020;23.094;2022-12-07T01:51:31;7.50;;;4.00;;
22754;SDS011;11544;42.020;23.094;2022-12-07T01:53:59;5.88;;;3.78;;
22754;SDS011;11544;42.020;23.094;2022-12-07T01:56:27;7.75;;;3.63;;
22754;SDS011;11544;42.020;23.094;2022-12-07T01:58:55;7.28;;;3.67;;
22754;SDS011;11544;42.020;23.094;2022-12-07T02:01:44;10.50;;;4.57;;
22754;SDS011;11544;42.020;23.094;2022-12-07T02:04:38;13.50;;;3.85;;
22754;SDS011;11544;42.020;23.094;2022-12-07T02:07:12;7.80;;;4.15;;
22754;SDS011;11544;42.020;23.094;2022-12-07T02:09:40;7.68;;;4.00;;
22754;SDS011;11544;42.020;23.094;2022-12-07T02:12:07;11.05;;;4.30;;
22754;SDS011;11544;42.020;23.094;2022-12-07T02:14:34;8.65;;;4.85;;
22754;SDS011;11544;42.020;23.094;2022-12-07T02:31:22;4.97;;;3.45;;
22754;SDS011;11544;42.020;23.094;2022-12-07T02:33:51;4.05;;;2.80;;
22754;SDS011;11544;42.020;23.094;2022-12-07T02:36:28;10.07;;;4.13;;
22754;SDS011;11544;42.020;23.094;2022-12-07T02:41:36;6.53;;;3.78;;
22754;SDS011;11544;42.020;23.094;2022-12-07T02:44:12;5.45;;;3.08;;
22754;SDS011;11544;42.020;23.094;2022-12-07T02:46:44;8.80;;;3.88;;
22754;SDS011;11544;42.020;23.094;2022-12-07T02:49:17;6.97;;;3.47;;
22754;SDS011;11544;42.020;23.094;2022-12-07T02:51:45;6.07;;;3.53;;
22754;SDS011;11544;42.020;23.094;2022-12-07T02:54:14;7.80;;;3.63;;
22754;SDS011;11544;42.020;23.094;2022-12-07T02:56:48;5.03;;;3.50;;
22754;SDS011;11544;42.020;23.094;2022-12-07T03:08:22;10.20;;;3.88;;
22754;SDS011;11544;42.020;23.094;2022-12-07T03:13:34;6.35;;;3.92;;
22754;SDS011;11544;42.020;23.094;2022-12-07T03:18:33;8.43;;;4.10;;
22754;SDS011;11544;42.020;23.094;2022-12-07T03:21:05;9.57;;;4.43;;
22754;SDS011;11544;42.020;23.094;2022-12-07T03:23:37;8.00;;;4.28;;
22754;SDS011;11544;42.020;23.094;2022-12-07T03:26:08;7.05;;;4.45;;
22754;SDS011;11544;42.020;23.094;2022-12-07T03:28:41;10.30;;;5.05;;
22754;SDS011;11544;42.020;23.094;2022-12-07T03:31:25;10.23;;;4.07;;
22754;SDS011;11544;42.020;23.094;2022-12-07T03:33:59;7.68;;;4.75;;
22754;SDS011;11544;42.020;23.094;2022-12-07T03:36:43;5.97;;;3.13;;
22754;SDS011;11544;42.020;23.094;2022-12-07T03:39:27;6.80;;;3.88;;
22754;SDS011;11544;42.020;23.094;2022-12-07T03:42:03;3.70;;;3.15;;
22754;SDS011;11544;42.020;23.094;2022-12-07T03:44:32;11.25;;;3.25;;
22754;SDS011;11544;42.020;23.094;2022-12-07T03:47:12;6.32;;;3.20;;
22754;SDS011;11544;42.020;23.094;2022-12-07T03:49:51;5.95;;;2.67;;
22754;SDS011;11544;42.020;23.094;2022-12-07T03:52:24;7.95;;;3.30;;
22754;SDS011;11544;42.020;23.094;2022-12-07T03:57:47;6.50;;;3.13;;
22754;SDS011;11544;42.020;23.094;2022-12-07T04:00:18;10.13;;;3.03;;
22754;SDS011;11544;42.020;23.094;2022-12-07T04:02:45;9.68;;;3.25;;
22754;SDS011;11544;42.020;23.094;2022-12-07T04:05:13;6.40;;;3.22;;
22754;SDS011;11544;42.020;23.094;2022-12-07T04:07:40;6.13;;;2.60;;
22754;SDS011;11544;42.020;23.094;2022-12-07T04:10:08;3.90;;;2.78;;
22754;SDS011;11544;42.020;23.094;2022-12-07T04:12:35;6.63;;;2.95;;
22754;SDS011;11544;42.020;23.094;2022-12-07T04:15:03;6.75;;;3.17;;
22754;SDS011;11544;42.020;23.094;2022-12-07T04:17:30;5.13;;;2.58;;
22754;SDS011;11544;42.020;23.094;2022-12-07T04:19:57;7.10;;;2.88;;
22754;SDS011;11544;42.020;23.094;2022-12-07T04:22:24;5.57;;;3.42;;
22754;SDS011;11544;42.020;23.094;2022-12-07T04:24:51;7.85;;;2.47;;
22754;SDS011;11544;42.020;23.094;2022-12-07T04:27:18;5.75;;;2.75;;
22754;SDS011;11544;42.020;23.094;2022-12-07T04:29:45;6.95;;;2.85;;
22754;SDS011;11544;42.020;23.094;2022-12-07T04:32:12;7.15;;;3.22;;
22754;SDS011;11544;42.020;23.094;2022-12-07T04:34:39;7.80;;;3.55;;
22754;SDS011;11544;42.020;23.094;2022-12-07T04:37:06;4.13;;;2.75;;
22754;SDS011;11544;42.020;23.094;2022-12-07T04:39:33;4.90;;;3.03;;
22754;SDS011;11544;42.020;23.094;2022-12-07T04:42:00;7.22;;;3.67;;
22754;SDS011;11544;42.020;23.094;2022-12-07T04:44:30;9.07;;;3.22;;
22754;SDS011;11544;42.020;23.094;2022-12-07T04:46:59;4.47;;;3.03;;
22754;SDS011;11544;42.020;23.094;2022-12-07T04:49:26;8.35;;;3.35;;
22754;SDS011;11544;42.020;23.094;2022-12-07T04:51:53;7.00;;;3.25;;
22754;SDS011;11544;42.020;23.094;2022-12-07T04:54:21;6.25;;;3.17;;
22754;SDS011;11544;42.020;23.094;2022-12-07T04:56:48;8.40;;;2.95;;
22754;SDS011;11544;42.020;23.094;2022-12-07T04:59:15;4.10;;;2.47;;
22754;SDS011;11544;42.020;23.094;2022-12-07T05:01:43;7.07;;;3.13;;
22754;SDS011;11544;42.020;23.094;2022-12-07T05:06:58;7.93;;;2.75;;
22754;SDS011;11544;42.020;23.094;2022-12-07T05:09:28;6.68;;;3.35;;
22754;SDS011;11544;42.020;23.094;2022-12-07T05:11:55;10.80;;;4.97;;
22754;SDS011;11544;42.020;23.094;2022-12-07T05:14:22;10.20;;;4.80;;
22754;SDS011;11544;42.020;23.094;2022-12-07T05:16:50;7.82;;;4.00;;
22754;SDS011;11544;42.020;23.094;2022-12-07T05:19:20;10.50;;;3.67;;
22754;SDS011;11544;42.020;23.094;2022-12-07T05:21:47;9.43;;;4.20;;
22754;SDS011;11544;42.020;23.094;2022-12-07T05:24:15;15.25;;;4.32;;
22754;SDS011;11544;42.020;23.094;2022-12-07T05:26:43;8.25;;;4.38;;
22754;SDS011;11544;42.020;23.094;2022-12-07T05:29:14;13.48;;;4.80;;
22754;SDS011;11544;42.020;23.094;2022-12-07T05:31:43;11.57;;;5.15;;
22754;SDS011;11544;42.020;23.094;2022-12-07T05:34:11;14.18;;;5.40;;
22754;SDS011;11544;42.020;23.094;2022-12-07T05:36:38;12.95;;;5.65;;
22754;SDS011;11544;42.020;23.094;2022-12-07T05:39:05;14.15;;;6.18;;
22754;SDS011;11544;42.020;23.094;2022-12-07T05:41:36;10.18;;;4.80;;
22754;SDS011;11544;42.020;23.094;2022-12-07T05:44:22;13.07;;;6.32;;
22754;SDS011;11544;42.020;23.094;2022-12-07T05:46:49;10.23;;;5.25;;
22754;SDS011;11544;42.020;23.094;2022-12-07T05:49:18;21.15;;;6.32;;
22754;SDS011;11544;42.020;23.094;2022-12-07T05:51:45;12.93;;;6.65;;
22754;SDS011;11544;42.020;23.094;2022-12-07T05:54:12;16.73;;;6.43;;
22754;SDS011;11544;42.020;23.094;2022-12-07T05:56:39;13.23;;;6.25;;
22754;SDS011;11544;42.020;23.094;2022-12-07T05:59:06;15.18;;;7.70;;
22754;SDS011;11544;42.020;23.094;2022-12-07T06:01:53;13.38;;;6.55;;
22754;SDS011;11544;42.020;23.094;2022-12-07T06:04:23;13.82;;;6.38;;
22754;SDS011;11544;42.020;23.094;2022-12-07T06:06:51;19.10;;;7.57;;
22754;SDS011;11544;42.020;23.094;2022-12-07T06:09:20;25.95;;;11.00;;
22754;SDS011;11544;42.020;23.094;2022-12-07T06:11:48;14.27;;;7.72;;
22754;SDS011;11544;42.020;23.094;2022-12-07T06:14:36;16.30;;;8.63;;
22754;SDS011;11544;42.020;23.094;2022-12-07T06:17:06;20.05;;;8.55;;
22754;SDS011;11544;42.020;23.094;2022-12-07T06:19:34;16.50;;;8.90;;
22754;SDS011;11544;42.020;23.094;2022-12-07T06:22:01;14.60;;;8.05;;
22754;SDS011;11544;42.020;23.094;2022-12-07T06:24:31;14.10;;;8.52;;
22754;SDS011;11544;42.020;23.094;2022-12-07T06:26:59;16.17;;;8.90;;
22754;SDS011;11544;42.020;23.094;2022-12-07T06:29:26;13.52;;;8.15;;
22754;SDS011;11544;42.020;23.094;2022-12-07T06:31:53;17.25;;;7.80;;
22754;SDS011;11544;42.020;23.094;2022-12-07T06:34:20;23.83;;;8.98;;
22754;SDS011;11544;42.020;23.094;2022-12-07T06:36:49;21.00;;;9.85;;
22754;SDS011;11544;42.020;23.094;2022-12-07T06:39:23;30.55;;;14.98;;
22754;SDS011;11544;42.020;23.094;2022-12-07T06:41:52;34.67;;;18.02;;
22754;SDS011;11544;42.020;23.094;2022-12-07T06:44:20;36.28;;;16.00;;
22754;SDS011;11544;42.020;23.094;2022-12-07T06:46:48;38.58;;;16.35;;
22754;SDS011;11544;42.020;23.094;2022-12-07T06:49:16;32.92;;;17.23;;
22754;SDS011;11544;42.020;23.094;2022-12-07T06:51:43;34.00;;;17.02;;
22754;SDS011;11544;42.020;23.094;2022-12-07T06:54:11;32.38;;;14.50;;
22754;SDS011;11544;42.020;23.094;2022-12-07T06:56:39;26.38;;;13.18;;
22754;SDS011;11544;42.020;23.094;2022-12-07T06:59:07;30.25;;;14.25;;
22754;SDS011;11544;42.020;23.094;2022-12-07T07:01:34;21.02;;;11.68;;
22754;SDS011;11544;42.020;23.094;2022-12-07T07:04:02;24.13;;;10.70;;
22754;SDS011;11544;42.020;23.094;2022-12-07T07:06:29;22.63;;;12.23;;
22754;SDS011;11544;42.020;23.094;2022-12-07T07:08:55;21.67;;;11.07;;
22754;SDS011;11544;42.020;23.094;2022-12-07T07:11:22;25.50;;;12.05;;
22754;SDS011;11544;42.020;23.094;2022-12-07T07:13:49;19.05;;;10.20;;
22754;SDS011;11544;42.020;23.094;2022-12-07T07:16:16;15.75;;;7.90;;
22754;SDS011;11544;42.020;23.094;2022-12-07T07:18:46;17.38;;;8.50;;
22754;SDS011;11544;42.020;23.094;2022-12-07T07:21:13;16.60;;;8.30;;
22754;SDS011;11544;42.020;23.094;2022-12-07T07:23:40;18.48;;;7.35;;
22754;SDS011;11544;42.020;23.094;2022-12-07T07:26:07;20.00;;;8.82;;
22754;SDS011;11544;42.020;23.094;2022-12-07T07:28:34;15.75;;;8.07;;
22754;SDS011;11544;42.020;23.094;2022-12-07T07:31:01;17.77;;;8.55;;
22754;SDS011;11544;42.020;23.094;2022-12-07T07:33:28;16.30;;;9.57;;
22754;SDS011;11544;42.020;23.094;2022-12-07T07:35:55;14.63;;;8.60;;
22754;SDS011;11544;42.020;23.094;2022-12-07T07:38:22;14.80;;;8.60;;
22754;SDS011;11544;42.020;23.094;2022-12-07T07:40:49;18.85;;;8.75;;
22754;SDS011;11544;42.020;23.094;2022-12-07T07:43:16;15.73;;;8.35;;
22754;SDS011;11544;42.020;23.094;2022-12-07T07:45:43;14.07;;;8.02;;
22754;SDS011;11544;42.020;23.094;2022-12-07T07:48:11;13.98;;;8.05;;
22754;SDS011;11544;42.020;23.094;2022-12-07T07:50:38;18.77;;;9.05;;
22754;SDS011;11544;42.020;23.094;2022-12-07T07:53:04;15.13;;;8.18;;
22754;SDS011;11544;42.020;23.094;2022-12-07T07:55:32;15.13;;;8.98;;
22754;SDS011;11544;42.020;23.094;2022-12-07T07:57:59;21.77;;;7.97;;
22754;SDS011;11544;42.020;23.094;2022-12-07T08:00:25;20.27;;;8.50;;
22754;SDS011;11544;42.020;23.094;2022-12-07T08:02:52;17.63;;;8.30;;
22754;SDS011;11544;42.020;23.094;2022-12-07T08:05:19;19.95;;;8.63;;
22754;SDS011;11544;42.020;23.094;2022-12-07T08:07:46;10.43;;;5.03;;
22754;SDS011;11544;42.020;23.094;2022-12-07T08:10:14;11.32;;;5.05;;
22754;SDS011;11544;42.020;23.094;2022-12-07T08:12:42;10.18;;;4.60;;
22754;SDS011;11544;42.020;23.094;2022-12-07T08:15:29;6.18;;;4.28;;
22754;SDS011;11544;42.020;23.094;2022-12-07T08:17:57;6.85;;;4.07;;
22754;SDS011;11544;42.020;23.094;2022-12-07T08:20:24;10.73;;;4.50;;
22754;SDS011;11544;42.020;23.094;2022-12-07T08:22:52;12.93;;;5.28;;
22754;SDS011;11544;42.020;23.094;2022-12-07T08:25:19;8.20;;;4.43;;
22754;SDS011;11544;42.020;23.094;2022-12-07T08:27:47;8.63;;;4.03;;
22754;SDS011;11544;42.020;23.094;2022-12-07T08:30:14;8.02;;;4.53;;
22754;SDS011;11544;42.020;23.094;2022-12-07T08:32:41;8.57;;;4.63;;
22754;SDS011;11544;42.020;23.094;2022-12-07T08:35:10;7.45;;;4.50;;
22754;SDS011;11544;42.020;23.094;2022-12-07T08:37:37;9.73;;;4.70;;
22754;SDS011;11544;42.020;23.094;2022-12-07T08:40:04;9.63;;;5.70;;
22754;SDS011;11544;42.020;23.094;2022-12-07T08:42:33;14.95;;;5.78;;
22754;SDS011;11544;42.020;23.094;2022-12-07T08:45:07;10.02;;;5.15;;
22754;SDS011;11544;42.020;23.094;2022-12-07T08:47:38;8.52;;;4.22;;
22754;SDS011;11544;42.020;23.094;2022-12-07T08:50:10;9.15;;;4.68;;
22754;SDS011;11544;42.020;23.094;2022-12-07T08:52:40;9.95;;;5.05;;
22754;SDS011;11544;42.020;23.094;2022-12-07T08:55:09;8.73;;;4.75;;
22754;SDS011;11544;42.020;23.094;2022-12-07T08:57:37;10.85;;;5.15;;
22754;SDS011;11544;42.020;23.094;2022-12-07T09:00:08;8.68;;;5.15;;
22754;SDS011;11544;42.020;23.094;2022-12-07T09:02:35;9.55;;;5.05;;
22754;SDS011;11544;42.020;23.094;2022-12-07T09:05:02;8.95;;;4.22;;
22754;SDS011;11544;42.020;23.094;2022-12-07T09:07:30;8.75;;;4.20;;
22754;SDS011;11544;42.020;23.094;2022-12-07T09:09:59;9.82;;;4.50;;
22754;SDS011;11544;42.020;23.094;2022-12-07T09:12:27;11.07;;;4.03;;
22754;SDS011;11544;42.020;23.094;2022-12-07T09:14:53;7.93;;;3.55;;
22754;SDS011;11544;42.020;23.094;2022-12-07T09:17:20;6.63;;;4.60;;
22754;SDS011;11544;42.020;23.094;2022-12-07T09:19:47;9.38;;;4.45;;
22754;SDS011;11544;42.020;23.094;2022-12-07T09:22:14;8.90;;;4.03;;
22754;SDS011;11544;42.020;23.094;2022-12-07T09:24:41;10.25;;;4.35;;
22754;SDS011;11544;42.020;23.094;2022-12-07T09:27:08;8.55;;;4.72;;
22754;SDS011;11544;42.020;23.094;2022-12-07T09:29:34;11.52;;;5.13;;
22754;SDS011;11544;42.020;23.094;2022-12-07T09:32:01;23.83;;;5.00;;
22754;SDS011;11544;42.020;23.094;2022-12-07T09:34:36;6.75;;;3.58;;
22754;SDS011;11544;42.020;23.094;2022-12-07T09:37:09;7.07;;;3.42;;
22754;SDS011;11544;42.020;23.094;2022-12-07T09:39:41;6.35;;;3.85;;
22754;SDS011;11544;42.020;23.094;2022-12-07T09:42:26;5.03;;;3.55;;
22754;SDS011;11544;42.020;23.094;2022-12-07T09:44:56;7.63;;;3.35;;
22754;SDS011;11544;42.020;23.094;2022-12-07T09:47:27;8.57;;;3.78;;
22754;SDS011;11544;42.020;23.094;2022-12-07T09:49:58;6.10;;;3.45;;
22754;SDS011;11544;42.020;23.094;2022-12-07T09:52:32;8.30;;;3.72;;
22754;SDS011;11544;42.020;23.094;2022-12-07T09:55:08;4.30;;;3.20;;
22754;SDS011;11544;42.020;23.094;2022-12-07T09:57:38;5.78;;;3.40;;
22754;SDS011;11544;42.020;23.094;2022-12-07T10:00:07;4.53;;;3.55;;
22754;SDS011;11544;42.020;23.094;2022-12-07T10:02:41;5.13;;;3.13;;
22754;SDS011;11544;42.020;23.094;2022-12-07T10:05:12;6.15;;;3.88;;
22754;SDS011;11544;42.020;23.094;2022-12-07T10:07:49;7.72;;;3.90;;
22754;SDS011;11544;42.020;23.094;2022-12-07T10:10:50;7.32;;;3.72;;
22754;SDS011;11544;42.020;23.094;2022-12-07T10:13:11;6.13;;;3.40;;
22754;SDS011;11544;42.020;23.094;2022-12-07T10:28:55;4.85;;;3.20;;
22754;SDS011;11544;42.020;23.094;2022-12-07T10:31:27;4.43;;;3.50;;
22754;SDS011;11544;42.020;23.094;2022-12-07T10:33:56;3.67;;;3.13;;
22754;SDS011;11544;42.020;23.094;2022-12-07T10:36:26;5.45;;;3.20;;
22754;SDS011;11544;42.020;23.094;2022-12-07T10:44:23;8.75;;;3.78;;
22754;SDS011;11544;42.020;23.094;2022-12-07T10:47:01;7.70;;;4.13;;
22754;SDS011;11544;42.020;23.094;2022-12-07T10:52:41;6.47;;;3.70;;
22754;SDS011;11544;42.020;23.094;2022-12-07T11:06:31;6.10;;;3.50;;
22754;SDS011;11544;42.020;23.094;2022-12-07T11:09:03;6.22;;;3.42;;
22754;SDS011;11544;42.020;23.094;2022-12-07T11:18:09;6.38;;;3.67;;
22754;SDS011;11544;42.020;23.094;2022-12-07T11:29:49;8.98;;;3.85;;
22754;SDS011;11544;42.020;23.094;2022-12-07T11:38:18;8.25;;;4.10;;
22754;SDS011;11544;42.020;23.094;2022-12-07T11:41:08;9.27;;;4.82;;
22754;SDS011;11544;42.020;23.094;2022-12-07T11:46:31;9.77;;;4.28;;
22754;SDS011;11544;42.020;23.094;2022-12-07T11:51:41;6.20;;;4.18;;
22754;SDS011;11544;42.020;23.094;2022-12-07T11:54:14;7.75;;;4.60;;
22754;SDS011;11544;42.020;23.094;2022-12-07T11:57:07;16.25;;;5.40;;
22754;SDS011;11544;42.020;23.094;2022-12-07T12:00:03;6.68;;;3.92;;
22754;SDS011;11544;42.020;23.094;2022-12-07T12:05:44;7.20;;;4.78;;
22754;SDS011;11544;42.020;23.094;2022-12-07T12:08:15;6.70;;;4.38;;
22754;SDS011;11544;42.020;23.094;2022-12-07T12:20:00;5.30;;;3.60;;
22754;SDS011;11544;42.020;23.094;2022-12-07T12:25:02;4.47;;;3.42;;
22754;SDS011;11544;42.020;23.094;2022-12-07T12:27:36;5.63;;;3.90;;
22754;SDS011;11544;42.020;23.094;2022-12-07T12:30:06;5.78;;;3.40;;
22754;SDS011;11544;42.020;23.094;2022-12-07T12:32:50;6.57;;;3.83;;
22754;SDS011;11544;42.020;23.094;2022-12-07T12:40:55;5.57;;;3.75;;
22754;SDS011;11544;42.020;23.094;2022-12-07T12:43:46;6.22;;;3.80;;
22754;SDS011;11544;42.020;23.094;2022-12-07T12:51:47;3.75;;;2.85;;
22754;SDS011;11544;42.020;23.094;2022-12-07T12:54:30;4.93;;;3.15;;
22754;SDS011;11544;42.020;23.094;2022-12-07T12:58:51;5.43;;;3.38;;
22754;SDS011;11544;42.020;23.094;2022-12-07T13:00:47;5.68;;;3.80;;
22754;SDS011;11544;42.020;23.094;2022-12-07T13:03:35;4.00;;;3.25;;
22754;SDS011;11544;42.020;23.094;2022-12-07T13:09:15;6.25;;;3.80;;
22754;SDS011;11544;42.020;23.094;2022-12-07T13:11:47;5.90;;;3.47;;
22754;SDS011;11544;42.020;23.094;2022-12-07T13:17:10;8.07;;;4.10;;
22754;SDS011;11544;42.020;23.094;2022-12-07T13:20:04;6.50;;;4.22;;
22754;SDS011;11544;42.020;23.094;2022-12-07T13:22:43;15.15;;;7.05;;
22754;SDS011;11544;42.020;23.094;2022-12-07T13:31:00;12.02;;;5.38;;
22754;SDS011;11544;42.020;23.094;2022-12-07T13:33:29;10.55;;;5.78;;
22754;SDS011;11544;42.020;23.094;2022-12-07T13:35:57;17.38;;;7.35;;
22754;SDS011;11544;42.020;23.094;2022-12-07T13:38:31;8.75;;;4.72;;
22754;SDS011;11544;42.020;23.094;2022-12-07T13:41:01;8.88;;;5.05;;
22754;SDS011;11544;42.020;23.094;2022-12-07T13:44:03;9.15;;;4.82;;
22754;SDS011;11544;42.020;23.094;2022-12-07T13:49:24;7.72;;;4.25;;
22754;SDS011;11544;42.020;23.094;2022-12-07T13:51:54;15.50;;;7.00;;
22754;SDS011;11544;42.020;23.094;2022-12-07T13:54:33;10.45;;;5.80;;
22754;SDS011;11544;42.020;23.094;2022-12-07T13:57:09;9.65;;;4.95;;
22754;SDS011;11544;42.020;23.094;2022-12-07T13:59:36;8.35;;;5.13;;
22754;SDS011;11544;42.020;23.094;2022-12-07T14:05:13;14.27;;;6.07;;
22754;SDS011;11544;42.020;23.094;2022-12-07T14:08:03;10.30;;;6.32;;
22754;SDS011;11544;42.020;23.094;2022-12-07T14:10:33;15.90;;;6.82;;
22754;SDS011;11544;42.020;23.094;2022-12-07T14:16:21;11.15;;;5.85;;
22754;SDS011;11544;42.020;23.094;2022-12-07T14:18:49;10.07;;;6.22;;
22754;SDS011;11544;42.020;23.094;2022-12-07T14:21:17;18.80;;;7.65;;
22754;SDS011;11544;42.020;23.094;2022-12-07T14:24:37;11.43;;;5.78;;
22754;SDS011;11544;42.020;23.094;2022-12-07T14:26:50;12.82;;;6.20;;
22754;SDS011;11544;42.020;23.094;2022-12-07T14:31:57;11.55;;;5.32;;
22754;SDS011;11544;42.020;23.094;2022-12-07T14:37:37;13.80;;;6.20;;
22754;SDS011;11544;42.020;23.094;2022-12-07T14:40:05;16.10;;;7.10;;
22754;SDS011;11544;42.020;23.094;2022-12-07T14:42:33;14.23;;;7.03;;
22754;SDS011;11544;42.020;23.094;2022-12-07T14:45:03;12.57;;;6.78;;
22754;SDS011;11544;42.020;23.094;2022-12-07T14:47:32;11.70;;;5.60;;
22754;SDS011;11544;42.020;23.094;2022-12-07T14:50:22;13.52;;;7.72;;
22754;SDS011;11544;42.020;23.094;2022-12-07T14:52:54;10.73;;;5.57;;
22754;SDS011;11544;42.020;23.094;2022-12-07T14:55:48;10.88;;;6.75;;
22754;SDS011;11544;42.020;23.094;2022-12-07T14:58:44;13.93;;;7.40;;
22754;SDS011;11544;42.020;23.094;2022-12-07T15:01:19;12.68;;;6.95;;
22754;SDS011;11544;42.020;23.094;2022-12-07T15:04:10;15.45;;;7.93;;
22754;SDS011;11544;42.020;23.094;2022-12-07T15:07:39;11.32;;;6.63;;
22754;SDS011;11544;42.020;23.094;2022-12-07T15:09:42;10.80;;;6.00;;
22754;SDS011;11544;42.020;23.094;2022-12-07T15:12:09;14.55;;;6.28;;
22754;SDS011;11544;42.020;23.094;2022-12-07T15:14:36;10.52;;;6.30;;
22754;SDS011;11544;42.020;23.094;2022-12-07T15:17:03;16.63;;;6.85;;
22754;SDS011;11544;42.020;23.094;2022-12-07T15:19:35;10.18;;;6.53;;
22754;SDS011;11544;42.020;23.094;2022-12-07T15:22:01;11.80;;;5.90;;
22754;SDS011;11544;42.020;23.094;2022-12-07T15:24:28;6.80;;;5.15;;
22754;SDS011;11544;42.020;23.094;2022-12-07T15:26:55;10.23;;;5.57;;
22754;SDS011;11544;42.020;23.094;2022-12-07T15:29:22;9.93;;;5.82;;
22754;SDS011;11544;42.020;23.094;2022-12-07T15:31:54;12.88;;;6.53;;
22754;SDS011;11544;42.020;23.094;2022-12-07T15:34:25;14.07;;;6.57;;
22754;SDS011;11544;42.020;23.094;2022-12-07T15:37:03;12.50;;;6.60;;
22754;SDS011;11544;42.020;23.094;2022-12-07T15:39:31;13.35;;;6.97;;
22754;SDS011;11544;42.020;23.094;2022-12-07T15:41:58;13.38;;;7.82;;
22754;SDS011;11544;42.020;23.094;2022-12-07T15:44:25;12.23;;;6.55;;
22754;SDS011;11544;42.020;23.094;2022-12-07T15:47:10;8.90;;;5.70;;
22754;SDS011;11544;42.020;23.094;2022-12-07T15:49:37;12.55;;;6.80;;
22754;SDS011;11544;42.020;23.094;2022-12-07T15:52:05;15.15;;;7.43;;
22754;SDS011;11544;42.020;23.094;2022-12-07T15:54:35;9.25;;;6.40;;
22754;SDS011;11544;42.020;23.094;2022-12-07T15:57:05;10.70;;;6.47;;
22754;SDS011;11544;42.020;23.094;2022-12-07T15:59:50;14.13;;;7.53;;
22754;SDS011;11544;42.020;23.094;2022-12-07T16:02:17;15.45;;;8.98;;
22754;SDS011;11544;42.020;23.094;2022-12-07T16:04:46;17.23;;;8.48;;
22754;SDS011;11544;42.020;23.094;2022-12-07T16:07:16;20.17;;;10.48;;
22754;SDS011;11544;42.020;23.094;2022-12-07T16:09:45;32.05;;;14.50;;
22754;SDS011;11544;42.020;23.094;2022-12-07T16:12:19;23.80;;;14.10;;
22754;SDS011;11544;42.020;23.094;2022-12-07T16:14:57;23.30;;;11.18;;
22754;SDS011;11544;42.020;23.094;2022-12-07T16:17:24;15.95;;;10.30;;
22754;SDS011;11544;42.020;23.094;2022-12-07T16:19:51;15.57;;;9.50;;
22754;SDS011;11544;42.020;23.094;2022-12-07T16:22:19;12.25;;;7.65;;
22754;SDS011;11544;42.020;23.094;2022-12-07T16:24:46;12.93;;;7.03;;
22754;SDS011;11544;42.020;23.094;2022-12-07T16:27:16;16.67;;;8.48;;
22754;SDS011;11544;42.020;23.094;2022-12-07T16:29:51;11.82;;;7.63;;
22754;SDS011;11544;42.020;23.094;2022-12-07T16:32:18;15.70;;;7.30;;
22754;SDS011;11544;42.020;23.094;2022-12-07T16:34:45;12.60;;;6.22;;
22754;SDS011;11544;42.020;23.094;2022-12-07T16:37:12;9.02;;;6.22;;
22754;SDS011;11544;42.020;23.094;2022-12-07T16:39:39;10.32;;;5.88;;
22754;SDS011;11544;42.020;23.094;2022-12-07T16:42:06;9.02;;;6.30;;
22754;SDS011;11544;42.020;23.094;2022-12-07T16:44:34;11.27;;;6.97;;
22754;SDS011;11544;42.020;23.094;2022-12-07T16:47:04;13.60;;;8.05;;
22754;SDS011;11544;42.020;23.094;2022-12-07T16:49:34;11.85;;;6.78;;
22754;SDS011;11544;42.020;23.094;2022-12-07T16:52:02;13.85;;;7.30;;
22754;SDS011;11544;42.020;23.094;2022-12-07T16:54:45;14.95;;;7.65;;
22754;SDS011;11544;42.020;23.094;2022-12-07T16:57:17;13.50;;;7.75;;
22754;SDS011;11544;42.020;23.094;2022-12-07T16:59:49;15.75;;;8.32;;
22754;SDS011;11544;42.020;23.094;2022-12-07T17:02:20;13.43;;;7.35;;
22754;SDS011;11544;42.020;23.094;2022-12-07T17:04:46;13.65;;;7.57;;
22754;SDS011;11544;42.020;23.094;2022-12-07T17:07:13;15.23;;;8.77;;
22754;SDS011;11544;42.020;23.094;2022-12-07T17:09:45;17.92;;;8.80;;
22754;SDS011;11544;42.020;23.094;2022-12-07T17:12:21;12.38;;;7.10;;
22754;SDS011;11544;42.020;23.094;2022-12-07T17:14:50;16.52;;;8.15;;
22754;SDS011;11544;42.020;23.094;2022-12-07T17:17:35;11.32;;;6.40;;
22754;SDS011;11544;42.020;23.094;2022-12-07T17:20:06;10.55;;;6.20;;
22754;SDS011;11544;42.020;23.094;2022-12-07T17:22:35;15.98;;;8.10;;
22754;SDS011;11544;42.020;23.094;2022-12-07T17:25:03;12.00;;;7.22;;
22754;SDS011;11544;42.020;23.094;2022-12-07T17:27:33;13.65;;;6.95;;